createdAt,value
2022-12-19T00:00:04.624Z,6.88
2022-12-19T00:01:04.685Z,6.88
2022-12-19T00:02:04.890Z,6.88
2022-12-19T00:03:05.085Z,6.88
2022-12-19T00:04:08.144Z,6.88
2022-12-19T00:05:05.005Z,6.88
2022-12-19T00:06:05.088Z,6.88
2022-12-19T00:07:05.207Z,6.88
2022-12-19T00:08:09.196Z,6.88
2022-12-19T00:09:05.319Z,6.88
2022-12-19T00:10:05.404Z,6.88
2022-12-19T00:11:05.482Z,6.88
2022-12-19T00:12:05.557Z,6.88
2022-12-19T00:13:05.620Z,6.98
2022-12-19T00:14:05.679Z,6.88
2022-12-19T00:15:05.765Z,6.88
2022-12-19T00:16:05.862Z,6.88
2022-12-19T00:17:05.905Z,6.93
2022-12-19T00:18:05.983Z,6.88
2022-12-19T00:19:06.078Z,6.88
2022-12-19T00:20:06.167Z,6.88
2022-12-19T00:21:06.278Z,6.88
2022-12-19T00:22:11.069Z,6.93
2022-12-19T00:23:06.423Z,6.88
2022-12-19T00:24:08.153Z,6.93
2022-12-19T00:25:06.560Z,6.88
2022-12-19T00:26:12.970Z,6.88
2022-12-19T00:27:06.719Z,6.88
2022-12-19T00:28:06.807Z,6.93
2022-12-19T00:29:12.593Z,6.93
2022-12-19T00:30:06.989Z,6.82
2022-12-19T00:31:07.136Z,6.93
2022-12-19T00:32:07.160Z,6.88
2022-12-19T00:33:07.222Z,6.88
2022-12-19T00:34:07.292Z,6.93
2022-12-19T00:35:07.391Z,6.88
2022-12-19T00:36:07.501Z,6.88
2022-12-19T00:37:07.593Z,6.93
2022-12-19T00:38:07.661Z,6.88
2022-12-19T00:39:08.702Z,6.88
2022-12-19T00:40:07.833Z,6.88
2022-12-19T00:41:07.916Z,6.88
2022-12-19T00:42:07.998Z,6.88
2022-12-19T00:43:08.092Z,6.82
2022-12-19T00:44:08.177Z,6.88
2022-12-19T00:45:08.246Z,6.88
2022-12-19T00:46:08.470Z,6.61
2022-12-19T00:47:08.418Z,6.93
2022-12-19T00:48:08.523Z,6.88
2022-12-19T00:49:08.595Z,6.93
2022-12-19T00:50:08.671Z,6.88
2022-12-19T00:51:08.746Z,6.88
2022-12-19T00:52:08.853Z,6.82
2022-12-19T00:53:08.943Z,6.82
2022-12-19T00:54:09.038Z,6.88
2022-12-19T00:55:15.620Z,6.88
2022-12-19T00:56:09.220Z,6.71
2022-12-19T00:57:15.268Z,6.88
2022-12-19T00:58:09.363Z,6.88
2022-12-19T00:59:09.436Z,6.93
2022-12-19T01:00:09.538Z,6.93
2022-12-19T01:01:09.626Z,6.88
2022-12-19T01:02:09.784Z,6.82
2022-12-19T01:03:09.791Z,6.93
2022-12-19T01:05:09.921Z,6.88
2022-12-19T01:06:10.010Z,6.88
2022-12-19T01:07:10.067Z,6.88
2022-12-19T01:08:10.172Z,6.88
2022-12-19T01:09:10.237Z,6.88
2022-12-19T01:10:10.319Z,6.88
2022-12-19T01:11:10.427Z,6.82
2022-12-19T01:12:10.505Z,6.82
2022-12-19T01:13:10.580Z,6.88
2022-12-19T01:14:10.679Z,6.88
2022-12-19T01:15:10.781Z,6.88
2022-12-19T01:16:10.911Z,6.93
2022-12-19T01:17:10.984Z,6.88
2022-12-19T01:18:11.056Z,6.88
2022-12-19T01:19:11.223Z,6.88
2022-12-19T01:20:11.192Z,6.88
2022-12-19T01:21:11.284Z,6.93
2022-12-19T01:22:11.364Z,6.88
2022-12-19T01:23:11.450Z,6.88
2022-12-19T01:24:11.532Z,6.88
2022-12-19T01:25:11.602Z,6.88
2022-12-19T01:26:11.678Z,6.88
2022-12-19T01:27:11.759Z,6.82
2022-12-19T01:28:17.820Z,6.93
2022-12-19T01:29:11.949Z,6.93
2022-12-19T01:30:12.011Z,6.88
2022-12-19T01:31:12.079Z,6.88
2022-12-19T01:32:12.154Z,6.82
2022-12-19T01:33:12.213Z,6.93
2022-12-19T01:34:12.290Z,6.88
2022-12-19T01:35:20.648Z,6.88
2022-12-19T01:36:12.486Z,6.88
2022-12-19T01:37:12.574Z,6.88
2022-12-19T01:38:12.648Z,6.88
2022-12-19T01:39:12.708Z,6.88
2022-12-19T01:40:12.794Z,6.88
2022-12-19T01:41:12.881Z,6.93
2022-12-19T01:42:12.969Z,6.88
2022-12-19T01:43:13.048Z,6.88
2022-12-19T01:44:13.148Z,6.88
2022-12-19T01:45:14.078Z,6.93
2022-12-19T01:46:13.362Z,6.88
2022-12-19T01:47:13.410Z,6.88
2022-12-19T01:48:13.487Z,6.88
2022-12-19T01:49:13.539Z,6.88
2022-12-19T01:50:13.632Z,7.04
2022-12-19T01:51:13.689Z,6.93
2022-12-19T01:52:20.135Z,6.88
2022-12-19T01:53:13.870Z,6.82
2022-12-19T01:54:13.985Z,6.88
2022-12-19T01:55:14.022Z,6.88
2022-12-19T01:56:14.063Z,6.88
2022-12-19T01:57:14.181Z,6.93
2022-12-19T01:58:14.236Z,6.93
2022-12-19T01:59:20.463Z,6.93
2022-12-19T02:00:14.376Z,6.88
2022-12-19T02:01:14.541Z,6.88
2022-12-19T02:02:14.706Z,6.88
2022-12-19T02:03:14.659Z,6.88
2022-12-19T02:04:14.694Z,6.88
2022-12-19T02:05:14.821Z,6.88
2022-12-19T02:06:14.874Z,6.88
2022-12-19T02:07:15.016Z,6.88
2022-12-19T02:08:15.065Z,6.88
2022-12-19T02:09:15.164Z,6.88
2022-12-19T02:10:15.244Z,6.88
2022-12-19T02:11:15.323Z,6.93
2022-12-19T02:12:15.403Z,6.88
2022-12-19T02:13:15.549Z,6.88
2022-12-19T02:14:15.604Z,6.88
2022-12-19T02:15:15.689Z,6.88
2022-12-19T02:16:15.811Z,6.88
2022-12-19T02:17:15.891Z,6.88
2022-12-19T02:18:15.958Z,6.88
2022-12-19T02:19:16.049Z,6.82
2022-12-19T02:20:16.142Z,6.88
2022-12-19T02:21:16.225Z,6.93
2022-12-19T02:22:19.114Z,6.93
2022-12-19T02:23:16.384Z,6.88
2022-12-19T02:24:16.452Z,6.88
2022-12-19T02:25:16.547Z,6.93
2022-12-19T02:26:16.641Z,6.93
2022-12-19T02:27:16.724Z,6.88
2022-12-19T02:28:16.769Z,6.88
2022-12-19T02:29:16.856Z,6.98
2022-12-19T02:30:22.918Z,6.82
2022-12-19T02:31:17.804Z,6.88
2022-12-19T02:32:17.118Z,6.93
2022-12-19T02:33:17.240Z,6.88
2022-12-19T02:34:17.305Z,6.88
2022-12-19T02:35:17.391Z,6.88
2022-12-19T02:36:17.457Z,6.88
2022-12-19T02:37:17.533Z,6.82
2022-12-19T02:38:17.627Z,6.88
2022-12-19T02:39:17.709Z,6.88
2022-12-19T02:40:17.791Z,6.88
2022-12-19T02:41:17.859Z,6.88
2022-12-19T02:42:17.934Z,6.88
2022-12-19T02:43:18.021Z,6.88
2022-12-19T02:44:18.115Z,6.88
2022-12-19T02:45:21.957Z,6.93
2022-12-19T02:46:18.276Z,6.88
2022-12-19T02:47:18.320Z,6.88
2022-12-19T02:48:19.511Z,6.82
2022-12-19T02:49:26.194Z,6.93
2022-12-19T02:50:18.556Z,6.88
2022-12-19T02:51:18.636Z,6.88
2022-12-19T02:52:18.706Z,6.88
2022-12-19T02:53:24.014Z,6.93
2022-12-19T02:54:18.890Z,6.93
2022-12-19T02:55:18.990Z,6.88
2022-12-19T02:56:19.067Z,6.88
2022-12-19T02:57:19.169Z,6.88
2022-12-19T02:58:19.264Z,6.88
2022-12-19T02:59:19.339Z,6.88
2022-12-19T03:00:19.418Z,6.93
2022-12-19T03:01:25.762Z,6.88
2022-12-19T03:02:19.741Z,6.88
2022-12-19T03:03:19.697Z,6.88
2022-12-19T03:04:19.750Z,6.88
2022-12-19T03:05:19.841Z,6.88
2022-12-19T03:06:19.910Z,6.88
2022-12-19T03:07:20.040Z,6.98
2022-12-19T03:08:20.108Z,6.93
2022-12-19T03:09:20.172Z,6.88
2022-12-19T03:10:20.266Z,6.88
2022-12-19T03:11:20.367Z,6.93
2022-12-19T03:12:20.394Z,6.88
2022-12-19T03:13:20.488Z,6.77
2022-12-19T03:14:20.563Z,6.93
2022-12-19T03:15:20.625Z,6.88
2022-12-19T03:16:20.766Z,6.88
2022-12-19T03:17:20.803Z,6.93
2022-12-19T03:18:20.909Z,6.66
2022-12-19T03:19:20.984Z,6.93
2022-12-19T03:20:21.050Z,6.88
2022-12-19T03:21:21.128Z,6.88
2022-12-19T03:22:21.215Z,6.88
2022-12-19T03:23:21.318Z,6.66
2022-12-19T03:24:21.396Z,6.88
2022-12-19T03:25:21.484Z,6.88
2022-12-19T03:26:21.546Z,6.88
2022-12-19T03:27:21.615Z,6.88
2022-12-19T03:28:21.698Z,6.88
2022-12-19T03:29:21.750Z,6.93
2022-12-19T03:30:21.815Z,6.88
2022-12-19T03:31:21.966Z,6.88
2022-12-19T03:32:27.947Z,6.88
2022-12-19T03:33:22.081Z,6.88
2022-12-19T03:34:22.168Z,6.88
2022-12-19T03:35:22.234Z,6.88
2022-12-19T03:36:22.328Z,6.71
2022-12-19T03:37:22.449Z,6.88
2022-12-19T03:38:22.494Z,6.93
2022-12-19T03:39:22.591Z,6.88
2022-12-19T03:40:22.653Z,6.88
2022-12-19T03:41:23.538Z,6.88
2022-12-19T03:42:22.852Z,6.88
2022-12-19T03:43:22.942Z,6.88
2022-12-19T03:44:22.999Z,6.88
2022-12-19T03:45:23.080Z,6.88
2022-12-19T03:46:23.193Z,6.88
2022-12-19T03:47:23.239Z,6.88
2022-12-19T03:48:23.325Z,6.93
2022-12-19T03:49:23.396Z,6.93
2022-12-19T03:50:23.480Z,6.66
2022-12-19T03:51:23.559Z,6.93
2022-12-19T03:52:23.618Z,6.93
2022-12-19T03:53:23.739Z,6.88
2022-12-19T03:54:23.801Z,6.93
2022-12-19T03:55:23.893Z,6.93
2022-12-19T03:56:23.988Z,6.88
2022-12-19T03:57:24.090Z,6.93
2022-12-19T03:58:24.127Z,6.88
2022-12-19T03:59:24.234Z,6.93
2022-12-19T04:00:24.295Z,6.88
2022-12-19T04:01:24.470Z,6.88
2022-12-19T04:02:24.591Z,6.88
2022-12-19T04:03:30.588Z,6.66
2022-12-19T04:04:24.690Z,6.88
2022-12-19T04:05:24.745Z,6.82
2022-12-19T04:06:24.810Z,6.66
2022-12-19T04:07:24.891Z,6.88
2022-12-19T04:08:24.988Z,6.93
2022-12-19T04:09:25.083Z,6.71
2022-12-19T04:10:25.185Z,6.88
2022-12-19T04:11:25.248Z,6.71
2022-12-19T04:12:25.335Z,6.88
2022-12-19T04:13:25.414Z,6.88
2022-12-19T04:14:25.496Z,6.88
2022-12-19T04:15:25.639Z,6.93
2022-12-19T04:16:25.670Z,6.66
2022-12-19T04:17:25.737Z,6.88
2022-12-19T04:18:25.829Z,6.82
2022-12-19T04:19:25.905Z,6.82
2022-12-19T04:20:26.007Z,6.71
2022-12-19T04:21:26.069Z,6.88
2022-12-19T04:22:26.147Z,6.88
2022-12-19T04:23:26.245Z,6.88
2022-12-19T04:24:26.320Z,6.66
2022-12-19T04:25:29.529Z,6.66
2022-12-19T04:26:26.535Z,6.71
2022-12-19T04:27:26.579Z,6.71
2022-12-19T04:28:26.634Z,6.71
2022-12-19T04:29:26.697Z,6.66
2022-12-19T04:30:26.789Z,6.66
2022-12-19T04:31:26.962Z,6.71
2022-12-19T04:32:26.982Z,6.66
2022-12-19T04:33:27.038Z,6.71
2022-12-19T04:34:33.084Z,6.66
2022-12-19T04:35:27.164Z,6.71
2022-12-19T04:36:27.304Z,6.66
2022-12-19T04:37:27.350Z,6.71
2022-12-19T04:38:27.432Z,6.66
2022-12-19T04:39:27.489Z,6.71
2022-12-19T04:40:27.573Z,6.77
2022-12-19T04:41:27.630Z,6.66
2022-12-19T04:42:27.714Z,6.71
2022-12-19T04:43:27.810Z,6.71
2022-12-19T04:44:27.873Z,6.66
2022-12-19T04:45:27.954Z,6.66
2022-12-19T04:46:28.083Z,6.88
2022-12-19T04:47:28.112Z,6.88
2022-12-19T04:48:28.216Z,6.93
2022-12-19T04:49:28.291Z,6.66
2022-12-19T04:50:28.360Z,6.77
2022-12-19T04:51:28.467Z,6.93
2022-12-19T04:52:28.553Z,6.88
2022-12-19T04:53:28.654Z,6.88
2022-12-19T04:54:28.760Z,6.71
2022-12-19T04:55:28.841Z,6.66
2022-12-19T04:56:28.931Z,6.71
2022-12-19T04:57:29.987Z,6.66
2022-12-19T04:58:29.087Z,6.66
2022-12-19T04:59:29.176Z,6.66
2022-12-19T05:00:29.274Z,6.66
2022-12-19T05:01:29.454Z,6.71
2022-12-19T05:02:29.643Z,6.66
2022-12-19T05:03:29.540Z,6.66
2022-12-19T05:04:29.602Z,6.71
2022-12-19T05:05:36.149Z,6.82
2022-12-19T05:06:29.760Z,6.88
2022-12-19T05:07:29.812Z,6.71
2022-12-19T05:08:29.903Z,6.88
2022-12-19T05:09:29.990Z,6.82
2022-12-19T05:10:30.079Z,6.71
2022-12-19T05:11:30.166Z,6.66
2022-12-19T05:12:30.213Z,6.66
2022-12-19T05:13:30.290Z,6.71
2022-12-19T05:14:30.395Z,6.71
2022-12-19T05:15:30.482Z,6.66
2022-12-19T05:16:30.756Z,6.88
2022-12-19T05:17:30.657Z,6.71
2022-12-19T05:18:30.761Z,6.71
2022-12-19T05:19:30.887Z,6.77
2022-12-19T05:20:30.950Z,6.71
2022-12-19T05:21:31.014Z,6.71
2022-12-19T05:22:31.109Z,6.71
2022-12-19T05:23:31.159Z,6.66
2022-12-19T05:24:31.247Z,6.88
2022-12-19T05:25:31.318Z,6.71
2022-12-19T05:26:31.431Z,6.71
2022-12-19T05:27:31.527Z,6.66
2022-12-19T05:28:31.580Z,6.66
2022-12-19T05:29:31.659Z,6.66
2022-12-19T05:30:31.763Z,6.66
2022-12-19T05:31:31.875Z,6.71
2022-12-19T05:32:31.945Z,6.71
2022-12-19T05:33:32.021Z,6.66
2022-12-19T05:34:32.099Z,6.71
2022-12-19T05:35:32.172Z,6.66
2022-12-19T05:36:38.221Z,6.71
2022-12-19T05:37:32.314Z,6.66
2022-12-19T05:38:32.414Z,6.66
2022-12-19T05:39:32.503Z,6.71
2022-12-19T05:40:32.596Z,6.66
2022-12-19T05:41:32.663Z,6.66
2022-12-19T05:42:32.759Z,6.66
2022-12-19T05:43:32.845Z,6.66
2022-12-19T05:44:32.928Z,6.66
2022-12-19T05:45:33.041Z,6.71
2022-12-19T05:46:33.128Z,6.71
2022-12-19T05:47:33.178Z,6.66
2022-12-19T05:48:33.253Z,6.71
2022-12-19T05:49:33.334Z,6.66
2022-12-19T05:50:33.422Z,6.66
2022-12-19T05:51:33.516Z,6.66
2022-12-19T05:52:33.583Z,6.71
2022-12-19T05:53:33.663Z,6.77
2022-12-19T05:54:33.721Z,6.71
2022-12-19T05:55:33.820Z,6.66
2022-12-19T05:56:33.894Z,6.71
2022-12-19T05:57:33.981Z,6.71
2022-12-19T05:58:34.041Z,6.71
2022-12-19T05:59:34.138Z,6.66
2022-12-19T06:00:34.227Z,6.66
2022-12-19T06:01:34.474Z,6.66
2022-12-19T06:02:34.542Z,6.71
2022-12-19T06:03:34.551Z,6.71
2022-12-19T06:04:34.560Z,6.71
2022-12-19T06:05:34.642Z,6.82
2022-12-19T06:06:34.734Z,6.66
2022-12-19T06:07:40.799Z,6.66
2022-12-19T06:08:34.899Z,6.71
2022-12-19T06:09:34.980Z,6.66
2022-12-19T06:10:35.039Z,6.66
2022-12-19T06:11:35.115Z,6.71
2022-12-19T06:12:35.214Z,6.77
2022-12-19T06:13:35.324Z,6.66
2022-12-19T06:14:35.363Z,6.66
2022-12-19T06:15:35.460Z,6.66
2022-12-19T06:16:35.642Z,6.66
2022-12-19T06:17:35.635Z,6.71
2022-12-19T06:18:39.398Z,6.66
2022-12-19T06:19:35.775Z,6.71
2022-12-19T06:20:35.873Z,6.71
2022-12-19T06:21:39.727Z,6.71
2022-12-19T06:22:36.036Z,6.71
2022-12-19T06:23:36.100Z,6.66
2022-12-19T06:24:36.172Z,6.66
2022-12-19T06:25:36.254Z,6.71
2022-12-19T06:26:36.349Z,6.71
2022-12-19T06:27:36.404Z,6.71
2022-12-19T06:28:36.503Z,6.71
2022-12-19T06:29:36.558Z,6.71
2022-12-19T06:30:36.641Z,6.66
2022-12-19T06:31:36.776Z,6.71
2022-12-19T06:32:38.382Z,6.66
2022-12-19T06:33:36.868Z,6.77
2022-12-19T06:35:03.278Z,6.71
2022-12-19T06:35:37.010Z,6.77
2022-12-19T06:36:37.086Z,6.71
2022-12-19T06:37:39.457Z,6.71
2022-12-19T06:38:43.238Z,6.66
2022-12-19T06:39:37.355Z,6.66
2022-12-19T06:40:37.434Z,6.66
2022-12-19T06:41:37.528Z,6.66
2022-12-19T06:42:37.626Z,6.66
2022-12-19T06:43:37.688Z,6.71
2022-12-19T06:44:37.775Z,6.66
2022-12-19T06:45:37.919Z,6.66
2022-12-19T06:46:37.945Z,6.77
2022-12-19T06:47:38.012Z,6.71
2022-12-19T06:48:38.105Z,6.71
2022-12-19T06:49:38.184Z,6.66
2022-12-19T06:50:38.246Z,6.71
2022-12-19T06:51:38.337Z,6.71
2022-12-19T06:52:38.422Z,6.77
2022-12-19T06:53:38.526Z,6.66
2022-12-19T06:54:38.614Z,6.71
2022-12-19T06:55:38.669Z,6.66
2022-12-19T06:56:38.756Z,6.71
2022-12-19T06:57:38.842Z,6.61
2022-12-19T06:58:38.931Z,6.66
2022-12-19T06:59:39.031Z,6.82
2022-12-19T07:00:39.087Z,6.71
2022-12-19T07:01:39.282Z,6.66
2022-12-19T07:02:39.315Z,6.66
2022-12-19T07:03:39.279Z,6.71
2022-12-19T07:04:39.399Z,6.77
2022-12-19T07:05:39.458Z,6.77
2022-12-19T07:06:42.346Z,6.71
2022-12-19T07:07:39.620Z,6.71
2022-12-19T07:08:39.716Z,6.71
2022-12-19T07:09:45.774Z,6.66
2022-12-19T07:10:39.917Z,6.66
2022-12-19T07:11:39.997Z,6.66
2022-12-19T07:12:40.053Z,6.71
2022-12-19T07:13:40.144Z,6.71
2022-12-19T07:14:40.200Z,6.66
2022-12-19T07:15:40.296Z,6.71
2022-12-19T07:16:40.549Z,6.66
2022-12-19T07:17:40.465Z,6.66
2022-12-19T07:18:40.506Z,6.66
2022-12-19T07:19:40.571Z,6.71
2022-12-19T07:20:44.917Z,6.71
2022-12-19T07:21:40.763Z,6.71
2022-12-19T07:22:40.802Z,6.82
2022-12-19T07:23:40.914Z,6.71
2022-12-19T07:24:40.964Z,7.04
2022-12-19T07:25:41.037Z,6.61
2022-12-19T07:26:41.107Z,6.66
2022-12-19T07:27:41.202Z,6.71
2022-12-19T07:28:41.323Z,6.71
2022-12-19T07:29:41.407Z,6.71
2022-12-19T07:30:41.474Z,6.71
2022-12-19T07:31:41.596Z,6.66
2022-12-19T07:32:41.642Z,6.66
2022-12-19T07:33:41.743Z,6.71
2022-12-19T07:34:41.834Z,6.71
2022-12-19T07:35:41.881Z,6.71
2022-12-19T07:36:41.979Z,6.71
2022-12-19T07:37:42.057Z,6.66
2022-12-19T07:38:42.145Z,6.66
2022-12-19T07:39:42.214Z,6.77
2022-12-19T07:40:49.231Z,6.71
2022-12-19T07:41:42.378Z,6.66
2022-12-19T07:42:42.447Z,6.66
2022-12-19T07:43:42.540Z,6.66
2022-12-19T07:44:42.647Z,6.71
2022-12-19T07:45:42.766Z,6.71
2022-12-19T07:46:42.802Z,6.66
2022-12-19T07:47:42.906Z,6.71
2022-12-19T07:48:42.975Z,6.66
2022-12-19T07:49:43.040Z,6.71
2022-12-19T07:50:43.128Z,6.71
2022-12-19T07:51:43.218Z,6.71
2022-12-19T07:52:43.327Z,6.66
2022-12-19T07:53:43.374Z,6.71
2022-12-19T07:54:43.453Z,6.71
2022-12-19T07:55:43.559Z,6.61
2022-12-19T07:56:43.644Z,6.66
2022-12-19T07:57:43.756Z,6.71
2022-12-19T07:58:43.796Z,6.71
2022-12-19T07:59:43.879Z,6.66
2022-12-19T08:00:44.038Z,6.71
2022-12-19T08:01:44.093Z,6.71
2022-12-19T08:02:44.330Z,6.66
2022-12-19T08:03:44.222Z,6.66
2022-12-19T08:04:44.289Z,6.66
2022-12-19T08:05:44.376Z,6.66
2022-12-19T08:06:44.449Z,6.71
2022-12-19T08:07:44.547Z,6.71
2022-12-19T08:08:44.638Z,6.66
2022-12-19T08:09:44.668Z,6.66
2022-12-19T08:10:44.769Z,6.66
2022-12-19T08:11:50.811Z,6.71
2022-12-19T08:12:44.921Z,6.66
2022-12-19T08:13:46.900Z,6.77
2022-12-19T08:14:45.133Z,6.71
2022-12-19T08:15:45.194Z,6.66
2022-12-19T08:17:18.625Z,6.66
2022-12-19T08:17:45.452Z,6.66
2022-12-19T08:18:45.413Z,6.66
2022-12-19T08:19:45.491Z,6.71
2022-12-19T08:20:45.571Z,6.66
2022-12-19T08:21:45.646Z,6.66
2022-12-19T08:22:45.732Z,6.71
2022-12-19T08:23:45.821Z,6.71
2022-12-19T08:24:45.896Z,6.71
2022-12-19T08:25:46.009Z,6.71
2022-12-19T08:26:47.847Z,6.66
2022-12-19T08:27:46.147Z,6.66
2022-12-19T08:28:46.231Z,6.71
2022-12-19T08:29:46.312Z,6.71
2022-12-19T08:30:46.479Z,6.66
2022-12-19T08:31:46.511Z,6.66
2022-12-19T08:32:46.542Z,6.66
2022-12-19T08:33:46.601Z,6.77
2022-12-19T08:34:46.671Z,6.66
2022-12-19T08:35:46.755Z,6.71
2022-12-19T08:36:46.852Z,6.71
2022-12-19T08:37:46.953Z,6.77
2022-12-19T08:38:47.004Z,6.71
2022-12-19T08:39:47.095Z,6.71
2022-12-19T08:40:47.667Z,6.66
2022-12-19T08:41:47.331Z,6.66
2022-12-19T08:42:53.760Z,6.66
2022-12-19T08:43:47.423Z,6.45
2022-12-19T08:44:47.493Z,6.66
2022-12-19T08:45:47.570Z,6.71
2022-12-19T08:46:50.250Z,6.71
2022-12-19T08:47:47.739Z,6.66
2022-12-19T08:48:47.838Z,6.66
2022-12-19T08:49:47.913Z,6.82
2022-12-19T08:50:48.074Z,6.77
2022-12-19T08:51:48.087Z,6.71
2022-12-19T08:52:48.201Z,6.71
2022-12-19T08:53:48.228Z,6.66
2022-12-19T08:54:48.323Z,6.66
2022-12-19T08:55:48.386Z,6.66
2022-12-19T08:56:48.471Z,6.77
2022-12-19T08:57:48.533Z,6.71
2022-12-19T08:58:48.612Z,6.71
2022-12-19T08:59:48.719Z,6.88
2022-12-19T09:00:54.720Z,6.71
2022-12-19T09:01:48.971Z,6.71
2022-12-19T09:02:49.106Z,6.71
2022-12-19T09:04:42.670Z,6.66
2022-12-19T09:06:15.470Z,6.66
2022-12-19T09:06:23.527Z,6.71
2022-12-19T09:07:17.775Z,6.71
2022-12-19T09:08:17.838Z,6.71
2022-12-19T09:09:17.905Z,6.77
2022-12-19T09:10:18.009Z,6.66
2022-12-19T09:11:18.131Z,6.71
2022-12-19T09:12:18.136Z,6.66
2022-12-19T09:13:24.205Z,6.66
2022-12-19T09:14:20.871Z,6.66
2022-12-19T09:15:18.354Z,6.50
2022-12-19T09:16:18.511Z,6.71
2022-12-19T09:17:18.631Z,6.61
2022-12-19T09:18:18.605Z,6.50
2022-12-19T09:19:18.740Z,6.39
2022-12-19T09:20:23.207Z,6.66
2022-12-19T09:21:18.878Z,6.66
2022-12-19T09:22:18.945Z,6.50
2022-12-19T09:23:19.043Z,6.71
2022-12-19T09:24:19.123Z,6.66
2022-12-19T09:25:19.202Z,6.66
2022-12-19T09:26:19.295Z,6.50
2022-12-19T09:27:19.403Z,6.50
2022-12-19T09:28:27.912Z,6.71
2022-12-19T09:29:21.563Z,6.55
2022-12-19T09:30:19.643Z,6.66
2022-12-19T09:31:19.699Z,6.71
2022-12-19T09:32:19.770Z,6.66
2022-12-19T09:33:19.826Z,6.66
2022-12-19T09:34:19.911Z,6.66
2022-12-19T09:35:19.998Z,6.66
2022-12-19T09:36:20.051Z,6.66
2022-12-19T09:37:20.168Z,6.71
2022-12-19T09:38:20.247Z,6.71
2022-12-19T09:39:20.357Z,6.66
2022-12-19T09:40:20.426Z,6.50
2022-12-19T09:41:20.549Z,6.71
2022-12-19T09:42:20.557Z,6.50
2022-12-19T09:43:20.642Z,6.50
2022-12-19T09:44:26.678Z,6.71
2022-12-19T09:45:31.151Z,6.71
2022-12-19T09:46:20.935Z,6.66
2022-12-19T09:47:21.006Z,6.71
2022-12-19T09:48:24.233Z,6.71
2022-12-19T09:49:21.098Z,6.55
2022-12-19T09:50:21.187Z,6.71
2022-12-19T09:51:21.271Z,6.50
2022-12-19T09:52:21.352Z,6.66
2022-12-19T09:53:21.440Z,6.66
2022-12-19T09:54:21.491Z,6.82
2022-12-19T09:55:21.593Z,6.71
2022-12-19T09:56:21.638Z,6.50
2022-12-19T09:57:21.704Z,6.55
2022-12-19T09:58:21.845Z,6.45
2022-12-19T09:59:22.257Z,6.50
2022-12-19T10:00:22.169Z,6.66
2022-12-19T10:01:22.242Z,6.50
2022-12-19T10:02:22.304Z,6.71
2022-12-19T10:03:22.274Z,6.50
2022-12-19T10:04:22.325Z,6.50
2022-12-19T10:05:51.737Z,6.55
2022-12-19T10:07:51.348Z,6.50
2022-12-19T10:08:09.757Z,6.50
2022-12-19T10:08:31.438Z,6.50
2022-12-19T10:10:55.575Z,6.50
2022-12-19T10:12:52.998Z,6.50
2022-12-19T10:12:59.758Z,6.50
2022-12-19T10:13:56.934Z,6.45
2022-12-19T10:15:03.348Z,6.50
2022-12-19T10:16:00.643Z,6.50
2022-12-19T10:17:23.228Z,6.66
2022-12-19T10:17:57.248Z,6.50
2022-12-19T10:18:57.428Z,6.50
2022-12-19T10:19:57.364Z,6.61
2022-12-19T10:20:57.464Z,6.50
2022-12-19T10:22:17.905Z,6.55
2022-12-19T10:22:57.615Z,6.50
2022-12-19T10:23:57.685Z,6.50
2022-12-19T10:25:08.928Z,6.55
2022-12-19T10:25:57.876Z,6.55
2022-12-19T10:26:58.305Z,6.50
2022-12-19T10:27:59.708Z,6.50
2022-12-19T10:28:58.144Z,6.71
2022-12-19T10:29:58.216Z,6.50
2022-12-19T10:31:00.512Z,6.55
2022-12-19T10:31:58.502Z,6.50
2022-12-19T10:32:58.464Z,6.55
2022-12-19T10:33:58.510Z,6.50
2022-12-19T10:34:58.629Z,6.50
2022-12-19T10:36:01.830Z,6.55
2022-12-19T10:37:24.487Z,6.45
2022-12-19T10:37:58.876Z,6.66
2022-12-19T10:38:58.962Z,6.50
2022-12-19T10:39:58.995Z,6.50
2022-12-19T10:40:59.123Z,6.50
2022-12-19T10:41:59.218Z,6.45
2022-12-19T10:42:59.313Z,6.50
2022-12-19T10:43:59.401Z,6.50
2022-12-19T10:44:59.452Z,6.50
2022-12-19T10:46:05.606Z,6.50
2022-12-19T10:46:59.700Z,6.45
2022-12-19T10:47:59.700Z,6.50
2022-12-19T10:48:59.838Z,6.45
2022-12-19T10:50:05.486Z,6.71
2022-12-19T10:51:05.226Z,6.66
2022-12-19T10:52:00.087Z,6.50
2022-12-19T10:53:00.125Z,6.55
2022-12-19T10:54:00.189Z,6.50
2022-12-19T10:55:00.297Z,6.55
2022-12-19T10:56:00.393Z,6.55
2022-12-19T10:57:00.419Z,6.50
2022-12-19T10:58:00.474Z,6.50
2022-12-19T10:59:00.614Z,6.50
2022-12-19T11:00:00.719Z,6.50
2022-12-19T11:01:00.794Z,6.50
2022-12-19T11:02:03.141Z,6.55
2022-12-19T11:03:01.097Z,6.50
2022-12-19T11:04:01.021Z,6.71
2022-12-19T11:05:01.223Z,6.55
2022-12-19T11:06:01.198Z,6.55
2022-12-19T11:07:01.249Z,6.50
2022-12-19T11:08:01.387Z,6.45
2022-12-19T11:09:01.480Z,6.45
2022-12-19T11:11:28.410Z,6.55
2022-12-19T11:18:57.051Z,6.50
2022-12-19T11:29:17.149Z,6.55
2022-12-19T11:31:54.628Z,6.55
2022-12-19T11:32:49.591Z,6.50
2022-12-19T11:33:25.127Z,6.50
2022-12-19T11:34:25.167Z,6.50
2022-12-19T11:35:36.919Z,6.50
2022-12-19T11:36:25.314Z,6.45
2022-12-19T11:37:25.361Z,6.55
2022-12-19T11:38:25.447Z,6.50
2022-12-19T11:39:25.565Z,6.55
2022-12-19T11:40:25.608Z,6.55
2022-12-19T11:41:25.772Z,6.50
2022-12-19T11:42:25.781Z,6.50
2022-12-19T11:43:43.945Z,6.55
2022-12-19T11:44:25.959Z,6.50
2022-12-19T11:45:26.030Z,6.55
2022-12-19T11:46:26.149Z,6.50
2022-12-19T11:48:23.528Z,6.50
2022-12-19T11:49:24.625Z,6.50
2022-12-19T11:50:24.736Z,6.55
2022-12-19T11:51:24.782Z,6.45
2022-12-19T11:53:02.355Z,6.55
2022-12-19T11:53:25.511Z,6.45
2022-12-19T11:54:25.073Z,6.55
2022-12-19T11:55:25.117Z,6.50
2022-12-19T11:56:25.226Z,6.55
2022-12-19T11:57:25.299Z,6.50
2022-12-19T11:58:25.401Z,6.50
2022-12-19T11:59:25.491Z,6.50
2022-12-19T12:00:25.537Z,6.55
2022-12-19T12:01:25.683Z,6.50
2022-12-19T12:02:25.717Z,6.50
2022-12-19T12:03:25.893Z,6.55
2022-12-19T12:04:25.951Z,6.50
2022-12-19T12:05:25.988Z,6.50
2022-12-19T12:06:31.295Z,6.50
2022-12-19T12:09:13.889Z,6.50
2022-12-19T12:17:51.872Z,6.45
2022-12-19T12:31:06.910Z,6.50
2022-12-19T12:35:54.025Z,6.50
2022-12-19T12:38:21.959Z,6.45
2022-12-19T12:39:04.800Z,6.50
2022-12-19T12:40:04.566Z,6.50
2022-12-19T12:41:04.706Z,6.55
2022-12-19T12:42:04.750Z,6.50
2022-12-19T12:43:04.877Z,6.61
2022-12-19T12:44:04.892Z,6.45
2022-12-19T12:45:04.981Z,6.45
2022-12-19T12:46:05.177Z,6.50
2022-12-19T12:47:05.132Z,6.50
2022-12-19T12:48:05.230Z,6.55
2022-12-19T12:49:05.302Z,6.50
2022-12-19T12:50:11.666Z,6.50
2022-12-19T12:51:05.420Z,6.50
2022-12-19T12:52:05.500Z,6.50
2022-12-19T12:53:05.609Z,6.50
2022-12-19T12:54:05.687Z,6.50
2022-12-19T12:55:05.738Z,6.50
2022-12-19T12:56:05.809Z,6.50
2022-12-19T12:57:06.006Z,6.50
2022-12-19T12:58:09.215Z,6.50
2022-12-19T12:59:06.075Z,6.50
2022-12-19T13:00:06.156Z,6.50
2022-12-19T13:01:06.230Z,6.45
2022-12-19T13:02:06.495Z,6.50
2022-12-19T13:03:06.513Z,6.50
2022-12-19T13:04:06.432Z,6.50
2022-12-19T13:05:06.618Z,6.50
2022-12-19T13:06:06.633Z,6.61
2022-12-19T13:07:06.712Z,6.45
2022-12-19T13:08:06.844Z,6.50
2022-12-19T13:09:06.828Z,6.61
2022-12-19T13:10:06.923Z,6.55
2022-12-19T13:11:06.982Z,6.50
2022-12-19T13:12:07.070Z,6.50
2022-12-19T13:13:12.642Z,6.55
2022-12-19T13:14:07.288Z,6.55
2022-12-19T13:15:07.338Z,6.55
2022-12-19T13:16:07.474Z,6.61
2022-12-19T13:17:07.661Z,6.50
2022-12-19T13:18:07.589Z,6.50
2022-12-19T13:19:11.524Z,6.50
2022-12-19T13:20:08.506Z,6.50
2022-12-19T13:21:13.832Z,6.45
2022-12-19T13:22:07.943Z,6.55
2022-12-19T13:23:08.043Z,6.50
2022-12-19T13:24:08.088Z,6.50
2022-12-19T13:25:08.198Z,6.50
2022-12-19T13:26:08.274Z,6.50
2022-12-19T13:27:08.359Z,6.55
2022-12-19T13:28:08.448Z,6.55
2022-12-19T13:29:08.525Z,6.45
2022-12-19T13:30:08.692Z,6.55
2022-12-19T13:31:21.229Z,6.45
2022-12-19T13:32:08.777Z,6.50
2022-12-19T13:33:08.890Z,6.55
2022-12-19T13:34:08.974Z,6.50
2022-12-19T13:36:11.607Z,6.50
2022-12-19T13:40:10.827Z,6.45
2022-12-19T13:40:20.495Z,6.45
2022-12-19T13:41:08.531Z,6.50
2022-12-19T13:42:08.599Z,6.50
2022-12-19T13:43:10.312Z,6.50
2022-12-19T13:44:08.779Z,6.50
2022-12-19T13:45:08.846Z,6.50
2022-12-19T13:46:09.011Z,6.50
2022-12-19T13:47:09.012Z,6.50
2022-12-19T13:48:09.106Z,6.55
2022-12-19T13:49:09.168Z,6.50
2022-12-19T13:50:09.270Z,6.50
2022-12-19T13:51:09.355Z,6.50
2022-12-19T13:52:15.647Z,6.50
2022-12-19T13:53:09.530Z,6.55
2022-12-19T13:54:09.619Z,6.50
2022-12-19T13:55:09.700Z,6.50
2022-12-19T13:56:09.796Z,6.50
2022-12-19T13:57:10.092Z,6.55
2022-12-19T13:58:09.930Z,6.45
2022-12-19T13:59:09.983Z,6.50
2022-12-19T14:00:10.100Z,6.50
2022-12-19T14:01:15.038Z,6.55
2022-12-19T14:02:10.473Z,6.50
2022-12-19T14:03:10.587Z,6.50
2022-12-19T14:04:10.432Z,6.61
2022-12-19T14:05:10.458Z,6.50
2022-12-19T14:06:18.304Z,6.45
2022-12-19T14:07:10.602Z,6.50
2022-12-19T14:08:10.661Z,6.50
2022-12-19T14:11:26.216Z,6.50
2022-12-19T14:13:46.252Z,6.45
2022-12-19T14:14:12.802Z,6.66